• Join FlightAware (Why Join?)
  • Login
  • US Flag 
Trick or treat! (Boo!!) 
08:14AM EDT


 

Airport Tracker/Info


-or-


 

Live Flight TrackerFlight Track Log ✈ CES2444 ✈ 24-Apr-2013 ✈ ZBAA / PEK - ZLXN / XNN

Flight Track Log - Related Links

Times and Time Zones

All times are in EDT time to prevent confusion due to time zone crossing. See the CES2444 flight status page for this flight to view local times or setup timezone preferences in your user account.

Time Position Orientation Groundspeed Altitude Reporting Facility
EDT Latitude Longitude Course Direction KTS MPH feet Rate Location/Type
07:28AM 39.8530 115.3102 257° West  Level Estimated
07:29AM 39.8317 115.1947 257° West  Level Estimated
07:30AM 39.8102 115.0794 256° West  Level Estimated
07:31AM 39.7887 114.9641 256° West  Level Estimated
07:32AM 39.7670 114.8489 256° West  Level Estimated
07:33AM 39.7452 114.7337 256° West  Level Estimated
07:34AM 39.7233 114.6187 256° West  Level Estimated
07:35AM 39.7013 114.5036 256° West  Level Estimated
07:36AM 39.6792 114.3887 256° West  Level Estimated
07:37AM 39.6569 114.2739 256° West  Level Estimated
07:38AM 39.6346 114.1591 256° West  Level Estimated
07:39AM 39.6121 114.0444 256° West  Level Estimated
07:40AM 39.5895 113.9298 256° West  Level Estimated
07:41AM 39.5668 113.8152 256° West  Level Estimated
07:42AM 39.5440 113.7008 256° West  Level Estimated
07:43AM 39.5211 113.5863 255° West  Level Estimated
07:44AM 39.4981 113.4720 255° West  Level Estimated
07:45AM 39.4749 113.3578 255° West  Level Estimated
07:46AM 39.4517 113.2436 255° West  Level Estimated
07:47AM 39.4283 113.1295 255° West  Level Estimated
07:48AM 39.4048 113.0155 255° West  Level Estimated
07:49AM 39.3812 112.9016 255° West  Level Estimated
07:50AM 39.3575 112.7877 255° West  Level Estimated
07:51AM 39.3337 112.6739 255° West  Level Estimated
07:52AM 39.3098 112.5602 255° West  Level Estimated
07:53AM 39.2858 112.4466 255° West  Level Estimated
07:54AM 39.2616 112.3330 255° West  Level Estimated
07:55AM 39.2374 112.2195 255° West  Level Estimated
07:56AM 39.2130 112.1061 255° West  Level Estimated
07:57AM 39.1885 111.9928 254° West  Level Estimated
07:58AM 39.1640 111.8796 254° West  Level Estimated
07:59AM 39.1393 111.7664 254° West  Level Estimated
08:00AM 39.1145 111.6533 254° West  Level Estimated
08:01AM 39.0896 111.5403 254° West  Level Estimated
08:02AM 39.0645 111.4274 254° West  Level Estimated
08:03AM 39.0394 111.3146 254° West  Level Estimated
08:04AM 39.0142 111.2018 254° West  Level Estimated
08:05AM 38.9888 111.0891 254° West  Level Estimated
08:06AM 38.9634 110.9765 254° West  Level Estimated
08:07AM 38.9378 110.8640 254° West  Level Estimated
08:08AM 38.9121 110.7516 254° West  Level Estimated
08:09AM 38.8864 110.6392 254° West  Level Estimated
08:10AM 38.8605 110.5269 254° West  Level Estimated
08:11AM 38.8345 110.4148 253° West  Level Estimated
08:12AM 38.8084 110.3027 253° West  Level Estimated
08:13AM 38.7822 110.1906 253° West  Level Estimated
08:14AM 38.7559 110.0787 253° West  Level Estimated
08:15AM 38.7294 109.9668 253° West  Level Estimated
08:16AM 38.7029 109.8550 253° West  Level Estimated
08:17AM 38.6763 109.7433 253° West  Level Estimated
08:18AM 38.6495 109.6317 253° West  Level Estimated
08:19AM 38.6227 109.5202 253° West  Level Estimated
08:20AM 38.5957 109.4088 253° West  Level Estimated
08:21AM 38.5687 109.2974 253° West  Level Estimated
08:22AM 38.5415 109.1861 253° West  Level Estimated
08:23AM 38.5143 109.0749 253° West  Level Estimated
08:24AM 38.4869 108.9638 253° West  Level Estimated
08:25AM 38.4594 108.8528 252° West  Level Estimated
08:26AM 38.4318 108.7419 252° West  Level Estimated
08:27AM 38.4041 108.6310 252° West  Level Estimated
08:28AM 38.3763 108.5202 252° West  Level Estimated
08:29AM 38.3484 108.4096 252° West  Level Estimated
08:30AM 38.3204 108.2990 252° West  Level Estimated
08:31AM 38.2923 108.1884 252° West  Level Estimated
08:32AM 38.2641 108.0780 252° West  Level Estimated
08:33AM 38.2358 107.9677 252° West  Level Estimated
08:34AM 38.2074 107.8574 252° West  Level Estimated
08:35AM 38.1789 107.7472 252° West  Level Estimated
08:36AM 38.1503 107.6372 252° West  Level Estimated
08:37AM 38.1216 107.5272 252° West  Level Estimated
08:38AM 38.0927 107.4173 252° West  Level Estimated
08:39AM 38.0638 107.3074 252° West  Level Estimated
08:40AM 38.0348 107.1977 251° West  Level Estimated
08:41AM 38.0056 107.0880 251° West  Level Estimated
08:42AM 37.9764 106.9785 251° West  Level Estimated
08:43AM 37.9471 106.8690 251° West  Level Estimated
08:44AM 37.9176 106.7596 251° West  Level Estimated
08:45AM 37.8881 106.6503 251° West  Level Estimated
08:46AM 37.8585 106.5411 251° West  Level Estimated
08:47AM 37.8287 106.4320 251° West  Level Estimated
08:48AM 37.7989 106.3230 251° West  Level Estimated
08:49AM 37.7689 106.2140 251° West  Level Estimated
08:50AM 37.7389 106.1051 251° West  Level Estimated
08:51AM 37.7088 105.9964 251° West  Level Estimated
08:52AM 37.6785 105.8877 251° West  Level Estimated
08:53AM 37.6482 105.7791 251° West  Level Estimated
08:54AM 37.6177 105.6706 251° West  Level Estimated
08:55AM 37.5872 105.5622 250° West  Level Estimated
08:56AM 37.5566 105.4538 250° West  Level Estimated
08:57AM 37.5258 105.3456 250° West  Level Estimated
08:58AM 37.4950 105.2375 250° West  Level Estimated
08:59AM 37.4641 105.1294 250° West  Level Estimated
09:00AM 37.4330 105.0214 250° West  Level Estimated
09:01AM 37.4019 104.9136 250° West  Level Estimated
09:02AM 37.3707 104.8058 250° West  Level Estimated
09:03AM 37.3393 104.6981 250° West  Level Estimated
09:04AM 37.3079 104.5904 250° West  Level Estimated
09:05AM 37.2764 104.4829 250° West  Level Estimated
09:06AM 37.2448 104.3755 250° West  Level Estimated
09:07AM 37.2131 104.2682 250° West  Level Estimated
09:08AM 37.1813 104.1609 250° West  Level Estimated
09:09AM 37.1493 104.0537 250° West  Level Estimated
09:10AM 37.1174 103.9467 249° West  Level Estimated
09:11AM 37.0853 103.8397 249° West  Level Estimated
09:12AM 37.0531 103.7328 249° West  Level Estimated
09:13AM 37.0208 103.6260 249° West  Level Estimated
09:14AM 36.9884 103.5193 249° West  Level Estimated
09:15AM 36.9559 103.4127 249° West  Level Estimated
09:16AM 36.9233 103.3062 249° West  Level Estimated
09:17AM 36.8906 103.1997 249° West  Level Estimated
09:18AM 36.8579 103.0934 249° West  Level Estimated
09:19AM 36.8250 102.9872 249° West  Level Estimated
09:20AM 36.7920 102.8810 249° West  Level Estimated
09:21AM 36.7574 102.7698 249° West  Level Estimated
09:22AM 36.7227 102.6588 249° West  Level Estimated
09:23AM 36.6878 102.5478 249° West  Level Estimated
09:24AM 36.6529 102.4370 249° West  Level Estimated
09:25AM 36.6178 102.3262 249° West  Level Estimated
09:26AM 36.5827 102.2156 248° West  Level Estimated
09:27AM 36.5474 102.1050 248° West  Level Estimated
09:28AM 36.5275 102.0428 248° West  Level Estimated
09:29AM 36.5275 102.0428 270° West  Level Estimated
09:30AM 36.5275 102.0428 270° West  Level Estimated
09:31AM 36.5275 102.0428 270° West  Level Estimated
09:32AM 36.5275 102.0428 270° West  Level Estimated
09:33AM 36.5275 102.0428 270° West  Level Estimated
09:34AM 36.5275 102.0428 270° West  Level Estimated
09:35AM 36.5275 102.0428 270° West  Level Estimated
09:36AM 36.5275 102.0428 270° West  Level Estimated
09:37AM 36.5275 102.0428 270° West  Level Estimated
09:38AM 36.5275 102.0428 270° West  Level Estimated